Terminal Aerodrome Forecast
Issued by NWS

Home | Current Version | Previous Version | Graphics & Text | Print | Product List | Glossary On
Versions: 1 2 3 4 5 6 7 8 9 10 11 12 13 14 15
000
FTUS43 KBIS 141100
TAFDIK
TAF
KDIK 141131Z 1412/1512 32015KT P6SM BKN015 BKN030
     FM141400 36008KT P6SM BKN035 BKN050
     FM141700 33008KT P6SM SCT050
     FM150200 19005KT P6SM SKC
     FM150800 15013KT P6SM BKN070
      AMD NOT SKED=

USA.gov is the U.S. government's official web portal to all federal, state and local government web resources and services.